Time;durP1;ratioP1;P1;durP2;ratioP2;P2;SDS_P1;SDS_P2;PMS_P1;PMS_P2;Temp;Humidity;BMP_temperature;BMP_pressure;BME280_temperature;BME280_humidity;BME280_pressure;Samples;Min_cycle;Max_cycle;Signal;HPM_P1;HPM_P2
2022/07/22 00:00:22;;;;;;;2.28;1.83;;;16.10;99.90;;;;;;4939550;28;89666;-33
2022/07/22 00:02:48;;;;;;;7.10;2.55;;;16.10;99.90;;;;;;4939597;28;89737;-34
2022/07/22 00:05:14;;;;;;;4.78;2.60;;;16.00;99.90;;;;;;4925666;28;87639;-33
2022/07/22 00:07:39;;;;;;;6.30;2.20;;;16.10;99.90;;;;;;4938999;28;90007;-34
2022/07/22 00:10:07;;;;;;;3.17;2.08;;;16.00;99.90;;;;;;4979216;23;89555;-33
2022/07/22 00:12:33;;;;;;;4.05;2.33;;;16.00;99.90;;;;;;4938155;28;89252;-33
2022/07/22 00:14:58;;;;;;;3.13;2.10;;;15.90;99.90;;;;;;4939381;28;89964;-32
2022/07/22 00:17:24;;;;;;;2.05;1.85;;;16.00;99.90;;;;;;4939499;28;90606;-31
2022/07/22 00:19:49;;;;;;;21.35;3.80;;;15.90;99.90;;;;;;4939031;28;89790;-31
2022/07/22 00:22:15;;;;;;;13.48;2.92;;;15.90;99.90;;;;;;4935879;28;89795;-32
2022/07/22 00:24:40;;;;;;;9.20;2.88;;;16.00;99.90;;;;;;4929768;28;88425;-32
2022/07/22 00:27:06;;;;;;;4.97;2.58;;;15.90;99.90;;;;;;4939111;28;91053;-30
2022/07/22 00:29:32;;;;;;;9.73;2.05;;;15.80;99.90;;;;;;4939186;28;91569;-33
2022/07/22 00:31:57;;;;;;;6.45;2.75;;;15.90;99.90;;;;;;4938383;28;90748;-30
2022/07/22 00:34:23;;;;;;;3.45;2.42;;;15.90;99.90;;;;;;4939505;28;88377;-31
2022/07/22 00:36:48;;;;;;;3.40;1.80;;;15.80;99.90;;;;;;4938976;28;90859;-33
2022/07/22 00:39:15;;;;;;;12.77;3.35;;;15.80;99.90;;;;;;4939174;28;89701;-33
2022/07/22 00:41:40;;;;;;;4.80;3.58;;;15.80;99.90;;;;;;4939318;28;90301;-30
2022/07/22 00:44:07;;;;;;;6.88;3.60;;;15.80;99.90;;;;;;4938891;28;89273;-33
2022/07/22 00:46:34;;;;;;;5.25;3.40;;;15.80;99.90;;;;;;4939884;28;91185;-33
2022/07/22 00:49:01;;;;;;;8.10;2.90;;;15.80;99.90;;;;;;4939383;28;89687;-33
2022/07/22 00:51:28;;;;;;;4.07;2.65;;;15.70;99.90;;;;;;4926222;28;89332;-32
2022/07/22 00:53:54;;;;;;;3.47;2.58;;;15.70;99.90;;;;;;4920339;28;89703;-31
2022/07/22 00:56:21;;;;;;;6.57;3.40;;;15.70;99.90;;;;;;4924173;28;91570;-32
2022/07/22 00:58:49;;;;;;;5.65;3.58;;;15.70;99.90;;;;;;4937373;28;89964;-31
2022/07/22 01:01:16;;;;;;;7.45;3.47;;;15.70;99.90;;;;;;4927352;28;89553;-33
2022/07/22 01:03:41;;;;;;;7.07;2.97;;;15.70;99.90;;;;;;4942128;28;89759;-30
2022/07/22 01:06:07;;;;;;;9.02;3.08;;;15.70;99.90;;;;;;4941541;28;90089;-31
2022/07/22 01:08:33;;;;;;;4.75;2.72;;;15.70;99.90;;;;;;4930930;28;90049;-34
2022/07/22 01:11:17;;;;;;;4.10;2.58;;;15.70;99.90;;;;;;4939705;28;91017;-31
2022/07/22 01:13:44;;;;;;;3.88;2.95;;;15.70;99.90;;;;;;4942561;28;90179;-34
2022/07/22 01:16:10;;;;;;;8.60;3.38;;;15.70;99.90;;;;;;4941667;28;90200;-32
2022/07/22 01:18:37;;;;;;;6.28;3.58;;;15.80;99.90;;;;;;4941853;28;89746;-32
2022/07/22 01:21:04;;;;;;;4.72;3.55;;;15.70;99.90;;;;;;4941425;28;90428;-33
2022/07/22 01:23:30;;;;;;;5.25;4.50;;;15.80;99.90;;;;;;4942459;28;88523;-32
2022/07/22 01:25:55;;;;;;;6.80;3.60;;;15.80;99.90;;;;;;4927859;28;90387;-34
2022/07/22 01:28:22;;;;;;;7.78;3.30;;;15.70;99.90;;;;;;4942011;28;88599;-33
2022/07/22 01:30:49;;;;;;;4.63;3.03;;;15.80;99.90;;;;;;4941731;28;88410;-32
2022/07/22 01:33:16;;;;;;;4.22;3.83;;;15.80;99.90;;;;;;4941157;28;88326;-33
2022/07/22 01:35:42;;;;;;;10.07;4.32;;;15.70;99.90;;;;;;4941704;28;90762;-31
2022/07/22 01:38:08;;;;;;;6.93;3.95;;;15.70;99.90;;;;;;4942135;28;89558;-31
2022/07/22 01:40:34;;;;;;;10.35;4.13;;;15.70;99.90;;;;;;4941163;28;89406;-30
2022/07/22 01:42:59;;;;;;;16.20;4.28;;;15.70;99.90;;;;;;4941911;28;90163;-32
2022/07/22 01:45:25;;;;;;;8.18;4.32;;;15.70;99.90;;;;;;4940764;28;90172;-35
2022/07/22 01:47:50;;;;;;;10.75;4.10;;;15.70;99.90;;;;;;4941583;28;89764;-34
2022/07/22 01:50:16;;;;;;;8.65;4.18;;;15.80;99.90;;;;;;4941397;28;89702;-31
2022/07/22 01:52:42;;;;;;;8.60;4.65;;;15.70;99.90;;;;;;4941568;28;89170;-34
2022/07/22 01:55:09;;;;;;;7.35;3.38;;;15.80;99.90;;;;;;4941195;28;89120;-31
2022/07/22 01:57:36;;;;;;;5.30;3.15;;;15.70;99.90;;;;;;4941916;28;89920;-34
2022/07/22 02:00:05;;;;;;;5.78;3.38;;;15.80;99.90;;;;;;4927218;28;90205;-33
2022/07/22 02:02:30;;;;;;;12.07;4.70;;;15.70;99.90;;;;;;4941906;28;88672;-30
2022/07/22 02:04:56;;;;;;;6.95;3.90;;;15.70;99.90;;;;;;4941697;28;90122;-31
2022/07/22 02:07:21;;;;;;;6.68;2.97;;;15.70;99.90;;;;;;4940623;28;89940;-32
2022/07/22 02:09:47;;;;;;;6.60;4.10;;;15.70;99.90;;;;;;4941121;28;89611;-30
2022/07/22 02:12:12;;;;;;;13.75;4.20;;;15.70;99.90;;;;;;4940650;28;87994;-32
2022/07/22 02:14:38;;;;;;;17.23;4.60;;;15.70;99.90;;;;;;4940840;28;90767;-32
2022/07/22 02:17:04;;;;;;;6.38;4.03;;;15.70;99.90;;;;;;4940781;28;90286;-30
2022/07/22 02:19:29;;;;;;;5.15;3.17;;;15.70;99.90;;;;;;4941037;28;89499;-34
2022/07/22 02:21:55;;;;;;;6.22;3.58;;;15.70;99.90;;;;;;4941554;28;87921;-31
2022/07/22 02:24:21;;;;;;;8.02;3.85;;;15.70;99.90;;;;;;4940383;28;90433;-33
2022/07/22 02:26:47;;;;;;;9.20;3.67;;;15.60;99.90;;;;;;4941428;28;89705;-35
2022/07/22 02:29:12;;;;;;;8.30;4.20;;;15.60;99.90;;;;;;4941232;28;90385;-30
2022/07/22 02:31:38;;;;;;;5.45;3.20;;;15.60;99.90;;;;;;4940603;28;89503;-35
2022/07/22 02:34:03;;;;;;;6.93;3.47;;;15.60;99.90;;;;;;4939706;28;90372;-32
2022/07/22 02:36:29;;;;;;;6.18;3.15;;;15.60;99.90;;;;;;4940704;28;89220;-34
2022/07/22 02:38:55;;;;;;;6.40;3.58;;;15.60;99.90;;;;;;4941658;28;89852;-30
2022/07/22 02:41:20;;;;;;;6.32;2.80;;;15.60;99.90;;;;;;4939984;28;89605;-31
2022/07/22 02:43:46;;;;;;;5.85;3.97;;;15.50;99.90;;;;;;4940702;28;90083;-31
2022/07/22 02:46:11;;;;;;;10.68;3.22;;;15.60;99.90;;;;;;4939582;28;90274;-31
2022/07/22 02:48:37;;;;;;;4.35;2.72;;;15.60;99.90;;;;;;4941290;28;89208;-34
2022/07/22 02:51:03;;;;;;;6.90;3.38;;;15.60;99.90;;;;;;4940960;28;89440;-34
2022/07/22 02:53:29;;;;;;;17.50;3.47;;;15.60;99.90;;;;;;4933388;28;90221;-34
2022/07/22 02:55:54;;;;;;;5.65;3.63;;;15.60;99.90;;;;;;4933305;28;90210;-33
2022/07/22 02:58:20;;;;;;;11.27;3.75;;;15.60;99.90;;;;;;4938542;28;90353;-31
2022/07/22 03:00:46;;;;;;;9.05;4.70;;;15.50;99.90;;;;;;4927727;28;87713;-33
2022/07/22 03:03:12;;;;;;;6.97;3.42;;;15.50;99.90;;;;;;4940279;28;90655;-31
2022/07/22 03:05:37;;;;;;;6.85;3.47;;;15.50;99.90;;;;;;4939831;28;89685;-34
2022/07/22 03:08:03;;;;;;;11.68;3.97;;;15.50;99.90;;;;;;4940260;28;89893;-32
2022/07/22 03:10:29;;;;;;;4.68;2.17;;;15.50;99.90;;;;;;4939589;28;88542;-31
2022/07/22 03:12:54;;;;;;;9.98;3.65;;;15.50;99.90;;;;;;4940372;28;89658;-32
2022/07/22 03:15:20;;;;;;;5.82;3.75;;;15.50;99.90;;;;;;4940313;28;89329;-30
2022/07/22 03:17:45;;;;;;;8.05;3.30;;;15.50;99.90;;;;;;4940198;28;89805;-35
2022/07/22 03:20:11;;;;;;;9.63;2.90;;;15.50;99.90;;;;;;4940430;28;89568;-32
2022/07/22 03:22:37;;;;;;;4.10;3.63;;;15.50;99.90;;;;;;4939125;28;90451;-34
2022/07/22 03:25:03;;;;;;;4.43;2.88;;;15.50;99.90;;;;;;4940199;28;90135;-33
2022/07/22 03:27:29;;;;;;;4.57;3.08;;;15.50;99.90;;;;;;4939910;28;89242;-32
2022/07/22 03:29:55;;;;;;;4.30;2.65;;;15.50;99.90;;;;;;4940662;28;88246;-32
2022/07/22 03:32:20;;;;;;;6.63;3.33;;;15.50;99.90;;;;;;4939736;28;89583;-30
2022/07/22 03:34:46;;;;;;;7.35;3.00;;;15.50;99.90;;;;;;4939601;28;89633;-31
2022/07/22 03:37:12;;;;;;;4.57;3.22;;;15.50;99.90;;;;;;4940052;28;89524;-31
2022/07/22 03:39:37;;;;;;;6.43;2.72;;;15.40;99.90;;;;;;4940351;28;87748;-32
2022/07/22 03:42:03;;;;;;;5.97;3.45;;;15.40;99.90;;;;;;4939738;28;90340;-34
2022/07/22 03:44:29;;;;;;;8.90;3.03;;;15.40;99.90;;;;;;4939576;28;89543;-33
2022/07/22 03:46:55;;;;;;;6.35;2.80;;;15.40;99.90;;;;;;4918019;28;90222;-32
2022/07/22 03:49:20;;;;;;;5.43;3.03;;;15.40;99.90;;;;;;4917031;28;88326;-31
2022/07/22 03:51:46;;;;;;;10.23;3.35;;;15.40;99.90;;;;;;4939945;28;89239;-32
2022/07/22 03:54:11;;;;;;;5.63;2.88;;;15.40;99.90;;;;;;4939602;28;88686;-33
2022/07/22 03:56:37;;;;;;;7.47;4.18;;;15.30;99.90;;;;;;4939311;28;88936;-34
2022/07/22 03:59:03;;;;;;;6.78;3.15;;;15.30;99.90;;;;;;4933611;28;88144;-34
2022/07/22 04:01:28;;;;;;;5.75;2.60;;;15.30;99.90;;;;;;4932017;28;90467;-32
2022/07/22 04:03:54;;;;;;;4.00;2.10;;;15.30;99.90;;;;;;4940131;28;90049;-30
2022/07/22 04:06:20;;;;;;;3.33;2.40;;;15.30;99.90;;;;;;4939986;28;90627;-30
2022/07/22 04:08:46;;;;;;;6.07;2.38;;;15.30;99.90;;;;;;4938850;28;89763;-34
2022/07/22 04:11:11;;;;;;;5.25;2.15;;;15.30;99.90;;;;;;4938700;28;91283;-32
2022/07/22 04:13:37;;;;;;;4.88;2.60;;;15.30;99.90;;;;;;4939298;28;89172;-31
2022/07/22 04:16:03;;;;;;;7.25;2.92;;;15.30;99.90;;;;;;4939633;28;90794;-35
2022/07/22 04:18:32;;;;;;;7.72;2.60;;;15.30;99.90;;;;;;4939923;28;88921;-30
2022/07/22 04:20:58;;;;;;;5.53;2.42;;;15.30;99.90;;;;;;4939136;28;90160;-31
2022/07/22 04:23:23;;;;;;;3.95;2.65;;;15.30;99.90;;;;;;4938362;28;90514;-34
2022/07/22 04:25:49;;;;;;;3.35;1.80;;;15.30;99.90;;;;;;4940013;28;90632;-31
2022/07/22 04:28:15;;;;;;;4.25;3.00;;;15.30;99.90;;;;;;4939642;28;88337;-30
2022/07/22 04:30:40;;;;;;;4.00;2.00;;;15.30;99.90;;;;;;4939421;28;90509;-33
2022/07/22 04:33:06;;;;;;;6.00;3.20;;;15.30;99.90;;;;;;4938537;28;88586;-34
2022/07/22 04:35:32;;;;;;;9.27;2.83;;;15.30;99.90;;;;;;4938698;28;89497;-32
2022/07/22 04:37:57;;;;;;;4.53;2.42;;;15.30;99.90;;;;;;4941464;28;88520;-33
2022/07/22 04:40:23;;;;;;;6.68;2.83;;;15.30;99.90;;;;;;4942581;28;89980;-33
2022/07/22 04:42:49;;;;;;;8.45;2.50;;;15.30;99.90;;;;;;4942459;28;89579;-33
2022/07/22 04:45:14;;;;;;;4.95;2.58;;;15.30;99.90;;;;;;4942015;28;89934;-33
2022/07/22 04:47:40;;;;;;;4.07;2.13;;;15.30;99.90;;;;;;4942773;28;88438;-32
2022/07/22 04:50:06;;;;;;;2.95;2.58;;;15.30;99.90;;;;;;4942268;28;91098;-32
2022/07/22 04:52:32;;;;;;;4.32;2.50;;;15.30;99.90;;;;;;4941835;28;89658;-35
2022/07/22 04:54:58;;;;;;;6.78;2.63;;;15.40;99.90;;;;;;4942409;28;88884;-32
2022/07/22 04:57:25;;;;;;;6.00;3.00;;;15.40;99.90;;;;;;4941697;28;88869;-31
2022/07/22 04:59:51;;;;;;;4.30;2.67;;;15.40;99.90;;;;;;4931213;28;90581;-30
2022/07/22 05:02:17;;;;;;;2.88;2.45;;;15.40;99.90;;;;;;4922852;28;89935;-33
2022/07/22 05:04:43;;;;;;;8.63;2.65;;;15.40;99.90;;;;;;4927156;28;89435;-30
2022/07/22 05:07:08;;;;;;;4.97;2.58;;;15.40;99.90;;;;;;4942317;28;89508;-32
2022/07/22 05:09:34;;;;;;;4.05;2.30;;;15.40;99.90;;;;;;4923982;28;90420;-31
2022/07/22 05:11:59;;;;;;;6.60;2.42;;;15.50;99.90;;;;;;4941718;28;90197;-34
2022/07/22 05:14:25;;;;;;;5.82;3.33;;;15.50;99.90;;;;;;4941586;28;90287;-34
2022/07/22 05:16:51;;;;;;;4.63;2.95;;;15.50;99.90;;;;;;4933022;28;89539;-34
2022/07/22 05:19:16;;;;;;;9.15;2.80;;;15.40;99.90;;;;;;4937905;28;90542;-31
2022/07/22 05:21:42;;;;;;;2.92;2.58;;;15.50;99.90;;;;;;4941776;28;90766;-32
2022/07/22 05:24:08;;;;;;;6.72;2.35;;;15.50;99.90;;;;;;4941616;28;90586;-34
2022/07/22 05:26:33;;;;;;;8.68;3.30;;;15.60;99.90;;;;;;4941546;28;89031;-33
2022/07/22 05:28:59;;;;;;;12.35;3.17;;;15.60;99.90;;;;;;4942184;28;90389;-35
2022/07/22 05:31:24;;;;;;;9.55;2.30;;;15.60;99.90;;;;;;4941782;28;90458;-30
2022/07/22 05:33:51;;;;;;;5.30;2.95;;;15.60;99.90;;;;;;4932199;28;89725;-33
2022/07/22 05:36:17;;;;;;;9.25;2.83;;;15.60;99.90;;;;;;4937537;28;89602;-31
2022/07/22 05:38:42;;;;;;;7.03;2.88;;;15.60;99.90;;;;;;4942111;28;90253;-31
2022/07/22 05:41:08;;;;;;;3.80;2.20;;;15.60;99.90;;;;;;4941668;28;89647;-35
2022/07/22 05:43:34;;;;;;;4.65;2.53;;;15.60;99.90;;;;;;4941636;28;89636;-32
2022/07/22 05:45:59;;;;;;;5.03;2.67;;;15.70;99.90;;;;;;4941412;28;89195;-33
2022/07/22 05:48:25;;;;;;;5.50;2.38;;;15.70;99.90;;;;;;4941040;28;90196;-31
2022/07/22 05:50:50;;;;;;;5.10;3.03;;;15.80;99.90;;;;;;4941309;28;89203;-31
2022/07/22 05:53:16;;;;;;;4.82;2.08;;;15.80;99.90;;;;;;4942100;28;89542;-33
2022/07/22 05:55:42;;;;;;;2.75;2.25;;;15.80;99.90;;;;;;4941235;28;88876;-34
2022/07/22 05:58:08;;;;;;;5.22;2.83;;;15.80;99.90;;;;;;4940574;28;89330;-31
2022/07/22 06:00:34;;;;;;;5.40;2.13;;;15.90;99.90;;;;;;4942210;28;90564;-30
2022/07/22 06:03:00;;;;;;;3.17;2.45;;;15.90;99.90;;;;;;4932452;28;89525;-32
2022/07/22 06:05:25;;;;;;;7.35;3.05;;;15.90;99.90;;;;;;4922764;28;89294;-35
2022/07/22 06:07:51;;;;;;;6.95;2.72;;;16.00;99.90;;;;;;4923097;28;91072;-31
2022/07/22 06:10:17;;;;;;;3.47;3.03;;;16.00;99.90;;;;;;4937655;28;89886;-35
2022/07/22 06:12:42;;;;;;;5.50;2.58;;;16.00;99.90;;;;;;4941610;28;90616;-33
2022/07/22 06:15:08;;;;;;;12.90;2.72;;;16.00;99.90;;;;;;4941632;28;88854;-33
2022/07/22 06:17:34;;;;;;;4.55;2.42;;;16.00;99.90;;;;;;4941197;28;90268;-34
2022/07/22 06:20:00;;;;;;;5.78;2.78;;;16.10;99.90;;;;;;4941932;28;90085;-31
2022/07/22 06:22:25;;;;;;;3.40;2.38;;;16.10;99.90;;;;;;4941509;28;89531;-34
2022/07/22 06:24:51;;;;;;;5.78;2.42;;;16.10;99.90;;;;;;4942298;28;89455;-33
2022/07/22 06:27:16;;;;;;;4.35;2.47;;;16.10;99.90;;;;;;4940400;28;90050;-31
2022/07/22 06:29:43;;;;;;;10.13;2.92;;;16.10;99.90;;;;;;4941302;28;89264;-31
2022/07/22 06:32:08;;;;;;;4.43;2.20;;;16.20;99.90;;;;;;4940556;28;89115;-31
2022/07/22 06:34:34;;;;;;;4.50;2.15;;;16.20;99.90;;;;;;4940942;28;89004;-34
2022/07/22 06:37:00;;;;;;;4.05;2.00;;;16.30;99.90;;;;;;4940252;28;90305;-32
2022/07/22 06:39:25;;;;;;;2.55;1.92;;;16.30;99.90;;;;;;4946627;28;88904;-34
2022/07/22 06:41:51;;;;;;;3.47;2.50;;;16.40;99.90;;;;;;4951722;28;89417;-32
2022/07/22 06:44:17;;;;;;;5.40;2.63;;;16.40;99.90;;;;;;4952294;28;87587;-32
2022/07/22 06:46:42;;;;;;;7.78;3.13;;;16.50;99.90;;;;;;4954234;28;90105;-32
2022/07/22 06:49:08;;;;;;;7.10;2.67;;;16.50;99.90;;;;;;4939893;28;88839;-31
2022/07/22 06:51:34;;;;;;;5.18;2.55;;;16.50;99.90;;;;;;4953605;28;88828;-32
2022/07/22 06:54:00;;;;;;;1.65;1.55;;;16.50;99.90;;;;;;4946705;28;89371;-33
2022/07/22 06:56:26;;;;;;;4.95;2.67;;;16.50;99.90;;;;;;4938745;28;89664;-34
2022/07/22 06:58:51;;;;;;;7.53;1.75;;;16.50;99.90;;;;;;4940777;28;89880;-31
2022/07/22 07:01:17;;;;;;;8.00;2.80;;;16.50;99.90;;;;;;4938527;28;90421;-33
2022/07/22 07:03:43;;;;;;;6.95;2.45;;;16.60;99.90;;;;;;4938918;28;88454;-33
2022/07/22 07:06:11;;;;;;;3.95;2.25;;;16.60;99.90;;;;;;4938061;28;90425;-32
2022/07/22 07:08:37;;;;;;;3.95;2.13;;;16.60;99.90;;;;;;4927182;28;89784;-34
2022/07/22 07:11:03;;;;;;;6.53;3.33;;;16.70;99.90;;;;;;4937678;28;89886;-36
2022/07/22 07:13:29;;;;;;;4.18;2.08;;;16.70;99.90;;;;;;4942263;28;88759;-33
2022/07/22 07:15:55;;;;;;;4.13;2.85;;;16.80;99.90;;;;;;4943741;28;90570;-31
2022/07/22 07:18:21;;;;;;;13.88;2.28;;;16.90;99.90;;;;;;4943224;28;89626;-32
2022/07/22 07:20:46;;;;;;;8.90;1.95;;;16.90;99.90;;;;;;4937645;28;89388;-35
2022/07/22 07:23:12;;;;;;;3.33;2.10;;;17.00;99.90;;;;;;4938380;28;88404;-32
2022/07/22 07:25:37;;;;;;;3.38;1.90;;;17.00;99.90;;;;;;4936651;28;91054;-34
2022/07/22 07:28:03;;;;;;;3.38;2.72;;;17.00;99.90;;;;;;4937631;28;90127;-31
2022/07/22 07:30:29;;;;;;;3.13;1.98;;;17.00;99.90;;;;;;4938238;28;89733;-31
2022/07/22 07:32:54;;;;;;;2.65;1.33;;;17.10;99.90;;;;;;4937632;28;89713;-32
2022/07/22 07:35:20;;;;;;;2.55;1.80;;;17.10;99.90;;;;;;4937993;28;89333;-34
2022/07/22 07:37:46;;;;;;;3.25;1.80;;;17.10;99.90;;;;;;4937082;28;89562;-31
2022/07/22 07:40:11;;;;;;;4.50;1.90;;;17.20;99.90;;;;;;4937559;28;90318;-36
2022/07/22 07:42:37;;;;;;;4.32;2.42;;;17.20;99.90;;;;;;4938120;28;89369;-35
2022/07/22 07:45:04;;;;;;;3.72;1.50;;;17.20;99.90;;;;;;4936978;28;90377;-33
2022/07/22 07:47:30;;;;;;;3.90;2.03;;;17.30;99.90;;;;;;4937461;28;89340;-33
2022/07/22 07:49:57;;;;;;;4.10;1.98;;;17.30;99.90;;;;;;4936722;28;89724;-34
2022/07/22 07:52:23;;;;;;;2.58;1.55;;;17.30;99.90;;;;;;4937347;28;89732;-34
2022/07/22 07:54:49;;;;;;;2.88;1.83;;;17.30;99.90;;;;;;4937065;28;89291;-34
2022/07/22 07:57:14;;;;;;;9.07;2.45;;;17.30;99.90;;;;;;4936572;28;89468;-33
2022/07/22 07:59:40;;;;;;;4.18;2.10;;;17.40;99.90;;;;;;4937339;28;89291;-32
2022/07/22 08:02:07;;;;;;;5.85;1.83;;;17.40;99.90;;;;;;4937527;28;89920;-33
2022/07/22 08:04:33;;;;;;;4.32;1.80;;;17.50;99.90;;;;;;4936447;28;90829;-32
2022/07/22 08:06:58;;;;;;;1.73;1.63;;;17.50;99.90;;;;;;4935932;28;89377;-33
2022/07/22 08:09:24;;;;;;;4.97;1.80;;;17.50;99.90;;;;;;4923219;28;89293;-33
2022/07/22 08:11:51;;;;;;;4.03;1.77;;;17.60;99.90;;;;;;4938451;28;88897;-35
2022/07/22 08:14:16;;;;;;;5.28;2.28;;;17.50;99.90;;;;;;4940056;28;90688;-32
2022/07/22 08:16:42;;;;;;;4.18;2.47;;;17.50;99.90;;;;;;4939769;28;90520;-32
2022/07/22 08:19:08;;;;;;;2.17;1.98;;;17.50;99.90;;;;;;4940344;28;90774;-30
2022/07/22 08:21:33;;;;;;;4.45;1.70;;;17.50;99.90;;;;;;4940473;28;91284;-31
2022/07/22 08:23:59;;;;;;;5.50;2.47;;;17.60;99.90;;;;;;4940778;28;90396;-32
2022/07/22 08:26:25;;;;;;;8.23;1.88;;;17.70;99.90;;;;;;4940127;28;89447;-32
2022/07/22 08:28:51;;;;;;;2.88;1.73;;;17.70;99.90;;;;;;4921776;28;89808;-31
2022/07/22 08:31:16;;;;;;;3.47;1.90;;;17.70;99.90;;;;;;4940706;28;88360;-31
2022/07/22 08:33:42;;;;;;;3.53;1.38;;;17.80;99.90;;;;;;4939820;28;90179;-34
2022/07/22 08:36:07;;;;;;;4.40;1.88;;;17.90;99.90;;;;;;4940395;28;90147;-33
2022/07/22 08:38:33;;;;;;;6.50;2.45;;;17.90;99.90;;;;;;4939631;28;89961;-33
2022/07/22 08:41:01;;;;;;;2.22;1.98;;;17.90;99.90;;;;;;4939845;28;89153;-32
2022/07/22 08:43:27;;;;;;;2.90;1.73;;;17.90;99.90;;;;;;4940268;28;90456;-32
2022/07/22 08:45:53;;;;;;;2.53;1.73;;;17.90;99.90;;;;;;4940027;28;91778;-31
2022/07/22 08:48:19;;;;;;;2.65;1.48;;;18.00;99.90;;;;;;4939599;28;88676;-31
2022/07/22 08:50:44;;;;;;;4.50;1.77;;;18.00;99.90;;;;;;4932286;28;89722;-29
2022/07/22 08:53:13;;;;;;;5.38;2.08;;;18.00;99.90;;;;;;4924205;28;90167;-31
2022/07/22 08:55:48;;;;;;;1.92;1.60;;;18.00;99.90;;;;;;4921450;28;89790;-31
2022/07/22 08:58:14;;;;;;;2.55;1.65;;;18.10;99.90;;;;;;4932131;28;88411;-32
2022/07/22 09:00:40;;;;;;;6.55;1.55;;;18.00;99.90;;;;;;4929188;28;90064;-31
2022/07/22 09:03:25;;;;;;;11.38;2.00;;;18.10;99.90;;;;;;4939214;28;90852;-33
2022/07/22 09:05:51;;;;;;;2.38;1.98;;;18.10;99.90;;;;;;4921901;28;89994;-33
2022/07/22 09:08:18;;;;;;;6.47;2.38;;;18.10;99.90;;;;;;4924135;28;89059;-32
2022/07/22 09:10:43;;;;;;;3.67;1.67;;;18.10;99.90;;;;;;4924487;28;89155;-33
2022/07/22 09:13:10;;;;;;;7.20;2.00;;;18.10;99.90;;;;;;4939408;28;90230;-32
2022/07/22 09:15:40;;;;;;;2.88;2.15;;;18.10;99.90;;;;;;4939137;28;89418;-33
2022/07/22 09:18:09;;;;;;;3.63;2.17;;;18.20;99.90;;;;;;4939091;28;89185;-32
2022/07/22 09:20:36;;;;;;;1.70;1.40;;;18.20;99.90;;;;;;4921833;28;88973;-34
2022/07/22 09:23:10;;;;;;;3.47;1.90;;;18.20;99.90;;;;;;4925986;28;90283;-36
2022/07/22 09:25:38;;;;;;;12.65;7.80;;;18.20;99.90;;;;;;4939091;28;89529;-30
2022/07/22 09:28:06;;;;;;;3.15;2.08;;;18.10;99.90;;;;;;4930809;28;89539;-34
2022/07/22 09:30:34;;;;;;;5.88;2.60;;;18.20;99.90;;;;;;4939414;28;89422;-35
2022/07/22 09:33:00;;;;;;;;;;;18.10;99.90;;;;;;4939686;28;90966;-32
2022/07/22 09:35:27;;;;;;;5.18;2.15;;;18.20;99.90;;;;;;4940393;28;89907;-33
2022/07/22 09:37:55;;;;;;;6.28;1.73;;;18.20;99.90;;;;;;4938909;28;90196;-33
2022/07/22 09:40:27;;;;;;;4.30;2.20;;;18.20;99.90;;;;;;4939442;28;89561;-34
2022/07/22 09:42:55;;;;;;;4.13;2.03;;;18.20;99.90;;;;;;4938586;28;90334;-30
2022/07/22 09:45:22;;;;;;;;;;;18.10;99.90;;;;;;4939458;28;89815;-31
2022/07/22 09:47:49;;;;;;;2.78;2.00;;;18.10;99.90;;;;;;4941163;28;88460;-31
2022/07/22 09:50:18;;;;;;;2.70;1.95;;;18.10;99.90;;;;;;4939526;28;88221;-32
2022/07/22 09:52:45;;;;;;;3.15;2.20;;;18.30;99.90;;;;;;4938366;28;90359;-32
2022/07/22 09:55:13;;;;;;;2.72;2.53;;;18.30;99.90;;;;;;4938357;28;90244;-31
2022/07/22 09:57:39;;;;;;;3.42;2.05;;;18.20;99.90;;;;;;4939486;28;90108;-34
2022/07/22 10:00:08;;;;;;;8.52;1.83;;;18.30;99.90;;;;;;4939481;28;89612;-31
2022/07/22 10:02:40;;;;;;;3.58;1.80;;;18.30;99.90;;;;;;4949127;28;89353;-33
2022/07/22 10:05:08;;;;;;;4.13;1.48;;;18.50;99.90;;;;;;4952178;28;90601;-31
2022/07/22 10:07:35;;;;;;;2.55;2.15;;;18.50;99.90;;;;;;4934886;28;89952;-32
2022/07/22 10:10:02;;;;;;;10.70;2.77;;;18.50;99.90;;;;;;4932346;28;87630;-31
2022/07/22 10:12:30;;;;;;;7.95;2.80;;;18.60;99.90;;;;;;4937734;28;90316;-31
2022/07/22 10:14:56;;;;;;;8.13;2.70;;;18.70;99.90;;;;;;4938891;28;89642;-32
2022/07/22 10:17:22;;;;;;;3.25;1.65;;;18.60;99.90;;;;;;4937257;28;90317;-34
2022/07/22 10:19:48;;;;;;;3.00;2.20;;;18.60;99.90;;;;;;4939133;28;89036;-33
2022/07/22 10:22:39;;;;;;;3.63;1.63;;;18.60;99.90;;;;;;4938732;28;90320;-32
2022/07/22 10:25:06;;;;;;;2.67;2.15;;;18.60;99.90;;;;;;4940085;28;88795;-33
2022/07/22 10:27:53;;;;;;;4.85;2.05;;;18.50;99.90;;;;;;4937866;28;89898;-30
2022/07/22 10:30:22;;;;;;;2.78;1.38;;;18.50;99.90;;;;;;4939118;28;88447;-31
2022/07/22 10:33:14;;;;;;;6.70;2.08;;;18.50;99.90;;;;;;4940215;28;89180;-32
2022/07/22 10:35:42;;;;;;;5.97;2.90;;;18.50;99.90;;;;;;4943320;28;89541;-30
2022/07/22 10:38:09;;;;;;;3.00;1.52;;;18.40;99.90;;;;;;4946442;28;89184;-31
2022/07/22 10:40:53;;;;;;;3.33;1.67;;;18.50;99.90;;;;;;4950735;28;88296;-33
2022/07/22 10:43:24;;;;;;;3.15;2.08;;;18.50;99.90;;;;;;4950579;28;92692;-31
2022/07/22 10:45:51;;;;;;;2.42;1.67;;;18.50;99.90;;;;;;4947988;28;90114;-31
2022/07/22 10:48:37;;;;;;;3.25;1.85;;;18.60;99.90;;;;;;4945320;28;89504;-30
2022/07/22 10:51:07;;;;;;;4.30;1.77;;;18.60;99.90;;;;;;4946702;28;88061;-35
2022/07/22 10:53:51;;;;;;;5.07;1.88;;;18.70;99.90;;;;;;4938881;28;90119;-29
2022/07/22 10:56:17;;;;;;;2.40;1.27;;;18.70;99.90;;;;;;4937126;28;90096;-31
2022/07/22 10:58:45;;;;;;;4.20;2.13;;;18.60;99.90;;;;;;4926116;28;89201;-33
2022/07/22 11:01:13;;;;;;;3.08;1.77;;;18.60;99.90;;;;;;4922467;28;89465;-30
2022/07/22 11:03:41;;;;;;;;;;;18.60;99.90;;;;;;4943794;28;90263;-30
2022/07/22 11:06:15;;;;;;;3.85;2.05;;;18.60;99.90;;;;;;4945842;28;89111;-31
2022/07/22 11:08:42;;;;;;;4.65;2.25;;;18.60;99.90;;;;;;4932591;28;89407;-33
2022/07/22 11:11:08;;;;;;;4.13;2.13;;;18.60;99.90;;;;;;4948371;28;88457;-31
2022/07/22 11:13:36;;;;;;;4.65;2.67;;;18.60;99.90;;;;;;4945822;28;89916;-31
2022/07/22 11:16:36;;;;;;;;;;;18.60;99.90;;;;;;4946319;28;89996;-31
2022/07/22 11:19:02;;;;;;;2.88;2.47;;;18.60;99.90;;;;;;4866939;28;88751;-31
2022/07/22 11:21:30;;;;;;;3.97;2.38;;;18.70;99.90;;;;;;4929422;28;88636;-31
2022/07/22 11:23:58;;;;;;;2.58;1.88;;;18.70;99.90;;;;;;4948843;28;90475;-31
2022/07/22 11:26:39;;;;;;;2.83;1.88;;;18.70;99.90;;;;;;4945850;28;90196;-30
2022/07/22 11:29:04;;;;;;;2.33;2.17;;;18.80;99.90;;;;;;4944856;28;88070;-30
2022/07/22 11:31:30;;;;;;;3.53;2.08;;;18.90;99.90;;;;;;4940292;28;88876;-33
2022/07/22 11:34:11;;;;;;;4.13;2.65;;;18.90;99.90;;;;;;4936761;28;90962;-33
2022/07/22 11:36:40;;;;;;;3.30;2.30;;;19.10;99.90;;;;;;4925028;28;90784;-32
2022/07/22 11:39:08;;;;;;;3.67;1.80;;;19.20;99.90;;;;;;4942609;28;89569;-36
2022/07/22 11:41:35;;;;;;;3.25;2.00;;;19.30;99.90;;;;;;4942763;28;89260;-33
2022/07/22 11:44:01;;;;;;;3.15;2.05;;;19.30;99.90;;;;;;4944292;28;91086;-31
2022/07/22 11:46:28;;;;;;;3.40;2.13;;;19.30;99.90;;;;;;4933478;28;91234;-31
2022/07/22 11:48:56;;;;;;;5.93;2.53;;;19.30;99.90;;;;;;4918156;28;89821;-33
2022/07/22 11:51:29;;;;;;;1.80;1.70;;;19.20;99.90;;;;;;4934086;28;89679;-33
2022/07/22 11:53:55;;;;;;;2.90;1.63;;;19.20;99.90;;;;;;4927765;28;90928;-33
2022/07/22 11:56:20;;;;;;;5.68;1.65;;;19.20;99.90;;;;;;4931122;28;90939;-31
2022/07/22 11:58:57;;;;;;;2.67;1.90;;;19.10;99.90;;;;;;4929879;28;90279;-33
2022/07/22 12:01:27;;;;;;;3.30;1.75;;;19.10;99.90;;;;;;4937476;28;88765;-33
2022/07/22 12:04:00;;;;;;;3.88;1.92;;;19.10;99.90;;;;;;4930986;28;89344;-32
2022/07/22 12:06:27;;;;;;;2.53;1.90;;;19.20;99.90;;;;;;4922994;28;89424;-32
2022/07/22 12:09:30;;;;;;;4.75;2.33;;;19.10;99.90;;;;;;4933204;28;90211;-31
2022/07/22 12:11:57;;;;;;;5.32;2.78;;;19.10;99.90;;;;;;4967270;22;89659;-32
2022/07/22 12:14:25;;;;;;;2.15;1.42;;;19.10;99.90;;;;;;4921759;28;89164;-31
2022/07/22 12:16:56;;;;;;;;;;;19.10;99.90;;;;;;4924159;28;89989;-32
2022/07/22 12:19:21;;;;;;;1.75;1.50;;;19.10;99.90;;;;;;4923619;28;89795;-34
2022/07/22 12:21:55;;;;;;;1.83;1.65;;;19.10;99.90;;;;;;4930230;28;88026;-32
2022/07/22 12:24:44;;;;;;;3.78;1.80;;;19.20;99.90;;;;;;4922058;28;89689;-33
2022/07/22 12:27:11;;;;;;;3.70;1.77;;;19.20;99.90;;;;;;4936263;28;89285;-31
2022/07/22 12:29:37;;;;;;;5.40;4.15;;;19.20;99.90;;;;;;4936451;28;89458;-33
2022/07/22 12:32:06;;;;;;;2.15;1.88;;;19.20;99.90;;;;;;4937058;28;89396;-35
2022/07/22 12:34:46;;;;;;;1.65;1.48;;;19.30;99.90;;;;;;4936483;28;91361;-31
2022/07/22 12:37:16;;;;;;;2.65;1.20;;;19.40;99.90;;;;;;4935736;28;89595;-32
2022/07/22 12:40:05;;;;;;;1.60;1.50;;;19.50;99.90;;;;;;4921799;28;90917;-33
2022/07/22 12:42:38;;;;;;;4.30;1.60;;;19.50;99.90;;;;;;4918435;28;88877;-32
2022/07/22 12:45:05;;;;;;;4.55;1.88;;;19.60;99.90;;;;;;4919915;28;90211;-31
2022/07/22 12:47:45;;;;;;;2.70;1.80;;;19.50;99.90;;;;;;4921739;28;90514;-35